Van Dyne, Wisconsin
Current Conditions -  °F | °C
As of 1:53 PM on Monday 24 Nov 2014 (Local Time) from KOSH Reporting Station
Moderate Snow Moderate Snow  
Wind Chill: 24°   Ceiling: 700
Heat Index: 33°   Visibility: 0.25mi
Dew Point: 31°   Wind: 13mph
Humidity: 92%   Direction: 280°W
Pressure: 29.18"   Gusts: 22mph
Location:  43.89°N, 88.5°W
Report Text: KOSH 241953Z 28011G19KT 1/4SM R36/3000V3500FT SN FG OVC007 01/M01 A2918 RMK AO2 RAE1856SNB1856 SLP890 P0006 T00061006
Loading
Personal Weather Stations






























Interactive Weather Map New forecast layout! Learn more

10-Day Weather Forecast

Advertisements
Track Severe Weather on mobile